sensor_id;sensor_type;location;lat;lon;timestamp;temperature;humidity
72762;SHT30;60886;55.034;73.150;2023-09-19T00:02:58;9.17;85.26
72762;SHT30;60886;55.034;73.150;2023-09-19T00:06:03;9.17;85.27
72762;SHT30;60886;55.034;73.150;2023-09-19T00:09:11;9.10;84.48
72762;SHT30;60886;55.034;73.150;2023-09-19T00:12:13;9.05;84.96
72762;SHT30;60886;55.034;73.150;2023-09-19T00:15:14;9.10;86.15
72762;SHT30;60886;55.034;73.150;2023-09-19T00:18:20;9.08;86.13
72762;SHT30;60886;55.034;73.150;2023-09-19T00:21:25;9.11;85.75
72762;SHT30;60886;55.034;73.150;2023-09-19T00:24:27;9.11;85.99
72762;SHT30;60886;55.034;73.150;2023-09-19T00:27:29;9.18;86.01
72762;SHT30;60886;55.034;73.150;2023-09-19T00:30:30;9.15;85.12
72762;SHT30;60886;55.034;73.150;2023-09-19T00:33:32;9.15;85.20
72762;SHT30;60886;55.034;73.150;2023-09-19T00:36:35;9.18;84.81
72762;SHT30;60886;55.034;73.150;2023-09-19T00:39:37;9.10;84.32
72762;SHT30;60886;55.034;73.150;2023-09-19T00:42:42;9.04;83.76
72762;SHT30;60886;55.034;73.150;2023-09-19T00:45:45;8.98;84.75
72762;SHT30;60886;55.034;73.150;2023-09-19T00:48:49;8.97;84.60
72762;SHT30;60886;55.034;73.150;2023-09-19T00:51:51;8.89;85.21
72762;SHT30;60886;55.034;73.150;2023-09-19T00:54:52;8.88;86.04
72762;SHT30;60886;55.034;73.150;2023-09-19T00:57:55;8.87;86.16
72762;SHT30;60886;55.034;73.150;2023-09-19T01:00:57;8.91;86.25
72762;SHT30;60886;55.034;73.150;2023-09-19T01:03:59;8.89;85.66
72762;SHT30;60886;55.034;73.150;2023-09-19T01:07:03;8.70;84.18
72762;SHT30;60886;55.034;73.150;2023-09-19T01:10:06;8.74;85.15
72762;SHT30;60886;55.034;73.150;2023-09-19T01:16:36;8.85;85.28
72762;SHT30;60886;55.034;73.150;2023-09-19T01:30:14;8.85;84.57
72762;SHT30;60886;55.034;73.150;2023-09-19T01:33:16;8.88;84.53
72762;SHT30;60886;55.034;73.150;2023-09-19T01:36:19;8.94;84.98
72762;SHT30;60886;55.034;73.150;2023-09-19T01:39:24;9.07;85.91
72762;SHT30;60886;55.034;73.150;2023-09-19T01:42:44;9.14;85.32
72762;SHT30;60886;55.034;73.150;2023-09-19T01:49:22;9.35;85.34
72762;SHT30;60886;55.034;73.150;2023-09-19T01:52:28;9.41;85.05
72762;SHT30;60886;55.034;73.150;2023-09-19T01:55:37;9.48;85.31
72762;SHT30;60886;55.034;73.150;2023-09-19T01:58:53;9.53;85.11
72762;SHT30;60886;55.034;73.150;2023-09-19T02:01:58;9.65;85.04
72762;SHT30;60886;55.034;73.150;2023-09-19T02:04:59;9.73;84.89
72762;SHT30;60886;55.034;73.150;2023-09-19T02:08:03;9.90;85.46
72762;SHT30;60886;55.034;73.150;2023-09-19T02:11:04;10.09;85.30
72762;SHT30;60886;55.034;73.150;2023-09-19T02:14:08;10.21;84.55
72762;SHT30;60886;55.034;73.150;2023-09-19T02:17:10;10.32;83.94
72762;SHT30;60886;55.034;73.150;2023-09-19T02:20:13;10.36;84.01
72762;SHT30;60886;55.034;73.150;2023-09-19T02:23:18;10.51;84.43
72762;SHT30;60886;55.034;73.150;2023-09-19T02:26:30;10.63;84.22
72762;SHT30;60886;55.034;73.150;2023-09-19T02:29:36;10.75;84.07
72762;SHT30;60886;55.034;73.150;2023-09-19T02:32:37;10.95;84.09
72762;SHT30;60886;55.034;73.150;2023-09-19T02:35:39;11.12;83.83
72762;SHT30;60886;55.034;73.150;2023-09-19T02:38:49;11.38;84.04
72762;SHT30;60886;55.034;73.150;2023-09-19T02:41:51;11.58;84.05
72762;SHT30;60886;55.034;73.150;2023-09-19T02:44:52;11.80;83.30
72762;SHT30;60886;55.034;73.150;2023-09-19T02:47:55;12.05;82.64
72762;SHT30;60886;55.034;73.150;2023-09-19T02:50:56;12.34;82.13
72762;SHT30;60886;55.034;73.150;2023-09-19T02:54:01;12.62;82.19
72762;SHT30;60886;55.034;73.150;2023-09-19T02:57:04;12.92;81.44
72762;SHT30;60886;55.034;73.150;2023-09-19T03:00:08;13.19;81.49
72762;SHT30;60886;55.034;73.150;2023-09-19T03:03:12;13.47;79.31
72762;SHT30;60886;55.034;73.150;2023-09-19T03:06:13;13.70;79.04
72762;SHT30;60886;55.034;73.150;2023-09-19T03:09:15;13.91;77.27
72762;SHT30;60886;55.034;73.150;2023-09-19T03:12:17;14.20;76.44
72762;SHT30;60886;55.034;73.150;2023-09-19T03:15:19;14.46;76.87
72762;SHT30;60886;55.034;73.150;2023-09-19T03:18:24;14.66;75.96
72762;SHT30;60886;55.034;73.150;2023-09-19T03:21:27;14.79;76.16
72762;SHT30;60886;55.034;73.150;2023-09-19T03:24:31;14.96;77.06
72762;SHT30;60886;55.034;73.150;2023-09-19T03:27:35;15.07;75.17
72762;SHT30;60886;55.034;73.150;2023-09-19T03:30:36;15.23;74.96
72762;SHT30;60886;55.034;73.150;2023-09-19T03:33:49;15.41;73.89
72762;SHT30;60886;55.034;73.150;2023-09-19T03:36:50;15.57;74.08
72762;SHT30;60886;55.034;73.150;2023-09-19T03:39:52;15.77;73.17
72762;SHT30;60886;55.034;73.150;2023-09-19T03:42:53;15.87;72.22
72762;SHT30;60886;55.034;73.150;2023-09-19T03:45:56;16.08;72.99
72762;SHT30;60886;55.034;73.150;2023-09-19T03:48:58;16.43;74.19
72762;SHT30;60886;55.034;73.150;2023-09-19T03:51:59;16.73;70.78
72762;SHT30;60886;55.034;73.150;2023-09-19T03:55:01;16.83;68.85
72762;SHT30;60886;55.034;73.150;2023-09-19T03:58:07;16.80;69.35
72762;SHT30;60886;55.034;73.150;2023-09-19T04:01:09;16.80;69.76
72762;SHT30;60886;55.034;73.150;2023-09-19T04:04:10;16.94;68.91
72762;SHT30;60886;55.034;73.150;2023-09-19T04:07:13;16.97;69.22
72762;SHT30;60886;55.034;73.150;2023-09-19T04:10:15;16.87;69.54
72762;SHT30;60886;55.034;73.150;2023-09-19T04:13:16;16.77;68.86
72762;SHT30;60886;55.034;73.150;2023-09-19T04:16:18;16.76;70.06
72762;SHT30;60886;55.034;73.150;2023-09-19T04:19:20;16.75;70.51
72762;SHT30;60886;55.034;73.150;2023-09-19T04:22:24;16.81;69.21
72762;SHT30;60886;55.034;73.150;2023-09-19T04:25:25;16.94;70.94
72762;SHT30;60886;55.034;73.150;2023-09-19T04:28:28;17.04;69.80
72762;SHT30;60886;55.034;73.150;2023-09-19T04:31:30;17.17;69.27
72762;SHT30;60886;55.034;73.150;2023-09-19T04:34:32;17.20;69.60
72762;SHT30;60886;55.034;73.150;2023-09-19T04:37:39;17.23;69.54
72762;SHT30;60886;55.034;73.150;2023-09-19T04:40:41;17.27;70.79
72762;SHT30;60886;55.034;73.150;2023-09-19T04:43:49;17.37;70.06
72762;SHT30;60886;55.034;73.150;2023-09-19T04:46:51;17.38;69.26
72762;SHT30;60886;55.034;73.150;2023-09-19T04:49:53;17.48;68.93
72762;SHT30;60886;55.034;73.150;2023-09-19T04:52:54;17.62;69.05
72762;SHT30;60886;55.034;73.150;2023-09-19T04:55:55;17.74;68.89
72762;SHT30;60886;55.034;73.150;2023-09-19T04:58:59;17.82;67.97
72762;SHT30;60886;55.034;73.150;2023-09-19T05:02:01;17.93;68.29
72762;SHT30;60886;55.034;73.150;2023-09-19T05:05:03;18.12;68.62
72762;SHT30;60886;55.034;73.150;2023-09-19T05:08:05;18.29;67.17
72762;SHT30;60886;55.034;73.150;2023-09-19T05:11:07;18.46;67.01
72762;SHT30;60886;55.034;73.150;2023-09-19T05:14:10;18.56;67.23
72762;SHT30;60886;55.034;73.150;2023-09-19T05:17:13;18.64;65.48
72762;SHT30;60886;55.034;73.150;2023-09-19T05:20:18;18.66;66.15
72762;SHT30;60886;55.034;73.150;2023-09-19T05:23:33;18.80;67.43
72762;SHT30;60886;55.034;73.150;2023-09-19T05:26:35;18.96;66.57
72762;SHT30;60886;55.034;73.150;2023-09-19T05:29:36;19.06;66.12
72762;SHT30;60886;55.034;73.150;2023-09-19T05:32:38;19.07;63.50
72762;SHT30;60886;55.034;73.150;2023-09-19T05:35:40;19.21;62.22
72762;SHT30;60886;55.034;73.150;2023-09-19T05:38:49;19.32;60.40
72762;SHT30;60886;55.034;73.150;2023-09-19T05:41:53;19.41;61.08
72762;SHT30;60886;55.034;73.150;2023-09-19T05:44:56;19.42;59.87
72762;SHT30;60886;55.034;73.150;2023-09-19T05:48:14;19.49;57.21
72762;SHT30;60886;55.034;73.150;2023-09-19T05:51:19;19.57;58.86
72762;SHT30;60886;55.034;73.150;2023-09-19T05:54:25;19.65;57.66
72762;SHT30;60886;55.034;73.150;2023-09-19T05:57:27;19.71;59.51
72762;SHT30;60886;55.034;73.150;2023-09-19T06:00:30;19.73;56.57
72762;SHT30;60886;55.034;73.150;2023-09-19T06:03:33;19.66;57.21
72762;SHT30;60886;55.034;73.150;2023-09-19T06:06:36;19.76;57.40
72762;SHT30;60886;55.034;73.150;2023-09-19T06:09:41;19.79;56.30
72762;SHT30;60886;55.034;73.150;2023-09-19T06:12:43;19.89;56.25
72762;SHT30;60886;55.034;73.150;2023-09-19T06:15:48;19.92;55.16
72762;SHT30;60886;55.034;73.150;2023-09-19T06:18:51;19.93;55.64
72762;SHT30;60886;55.034;73.150;2023-09-19T06:21:53;19.87;54.94
72762;SHT30;60886;55.034;73.150;2023-09-19T06:24:58;19.80;54.16
72762;SHT30;60886;55.034;73.150;2023-09-19T06:28:02;19.73;55.37
72762;SHT30;60886;55.034;73.150;2023-09-19T06:31:08;19.72;55.47
72762;SHT30;60886;55.034;73.150;2023-09-19T06:34:13;19.82;56.00
72762;SHT30;60886;55.034;73.150;2023-09-19T06:37:18;19.86;54.78
72762;SHT30;60886;55.034;73.150;2023-09-19T06:40:20;19.90;54.91
72762;SHT30;60886;55.034;73.150;2023-09-19T06:43:21;19.94;54.71
72762;SHT30;60886;55.034;73.150;2023-09-19T06:46:23;19.93;53.01
72762;SHT30;60886;55.034;73.150;2023-09-19T06:49:25;19.97;54.85
72762;SHT30;60886;55.034;73.150;2023-09-19T06:52:28;20.05;52.61
72762;SHT30;60886;55.034;73.150;2023-09-19T06:55:29;20.05;54.32
72762;SHT30;60886;55.034;73.150;2023-09-19T06:58:32;19.97;52.91
72762;SHT30;60886;55.034;73.150;2023-09-19T07:01:33;20.03;52.81
72762;SHT30;60886;55.034;73.150;2023-09-19T07:04:36;20.08;53.07
72762;SHT30;60886;55.034;73.150;2023-09-19T07:07:37;20.12;53.60
72762;SHT30;60886;55.034;73.150;2023-09-19T07:10:40;20.16;51.58
72762;SHT30;60886;55.034;73.150;2023-09-19T07:13:49;20.20;52.68
72762;SHT30;60886;55.034;73.150;2023-09-19T07:16:51;20.14;51.85
72762;SHT30;60886;55.034;73.150;2023-09-19T07:19:53;20.14;52.12
72762;SHT30;60886;55.034;73.150;2023-09-19T07:22:55;20.27;52.62
72762;SHT30;60886;55.034;73.150;2023-09-19T07:25:57;20.39;52.74
72762;SHT30;60886;55.034;73.150;2023-09-19T07:29:00;20.43;51.43
72762;SHT30;60886;55.034;73.150;2023-09-19T07:32:05;20.54;52.12
72762;SHT30;60886;55.034;73.150;2023-09-19T07:35:08;20.57;49.31
72762;SHT30;60886;55.034;73.150;2023-09-19T07:38:09;20.57;50.05
72762;SHT30;60886;55.034;73.150;2023-09-19T07:41:12;20.60;49.59
72762;SHT30;60886;55.034;73.150;2023-09-19T07:44:15;20.65;49.13
72762;SHT30;60886;55.034;73.150;2023-09-19T07:47:24;20.55;49.73
72762;SHT30;60886;55.034;73.150;2023-09-19T07:50:27;20.53;49.43
72762;SHT30;60886;55.034;73.150;2023-09-19T07:53:31;20.58;47.81
72762;SHT30;60886;55.034;73.150;2023-09-19T07:56:38;20.63;48.24
72762;SHT30;60886;55.034;73.150;2023-09-19T07:59:42;20.75;48.74
72762;SHT30;60886;55.034;73.150;2023-09-19T08:02:46;20.77;48.16
72762;SHT30;60886;55.034;73.150;2023-09-19T08:05:52;20.81;47.77
72762;SHT30;60886;55.034;73.150;2023-09-19T08:08:54;20.80;47.76
72762;SHT30;60886;55.034;73.150;2023-09-19T08:11:56;20.84;48.34
72762;SHT30;60886;55.034;73.150;2023-09-19T08:14:59;20.75;48.08
72762;SHT30;60886;55.034;73.150;2023-09-19T08:18:04;20.77;49.12
72762;SHT30;60886;55.034;73.150;2023-09-19T08:21:12;20.88;48.90
72762;SHT30;60886;55.034;73.150;2023-09-19T08:24:21;20.91;51.71
72762;SHT30;60886;55.034;73.150;2023-09-19T08:27:27;20.95;51.74
72762;SHT30;60886;55.034;73.150;2023-09-19T08:30:29;20.95;50.04
72762;SHT30;60886;55.034;73.150;2023-09-19T08:33:39;20.94;49.93
72762;SHT30;60886;55.034;73.150;2023-09-19T08:36:54;21.01;51.01
72762;SHT30;60886;55.034;73.150;2023-09-19T08:39:59;20.99;50.35
72762;SHT30;60886;55.034;73.150;2023-09-19T08:43:01;21.02;50.97
72762;SHT30;60886;55.034;73.150;2023-09-19T08:49:19;21.05;51.19
72762;SHT30;60886;55.034;73.150;2023-09-19T08:52:32;21.09;51.29
72762;SHT30;60886;55.034;73.150;2023-09-19T08:55:51;21.11;50.26
72762;SHT30;60886;55.034;73.150;2023-09-19T08:59:02;21.17;50.96
72762;SHT30;60886;55.034;73.150;2023-09-19T09:02:11;21.25;50.72
72762;SHT30;60886;55.034;73.150;2023-09-19T09:05:17;21.18;49.48
72762;SHT30;60886;55.034;73.150;2023-09-19T09:08:24;21.25;50.09
72762;SHT30;60886;55.034;73.150;2023-09-19T09:11:33;21.24;50.13
72762;SHT30;60886;55.034;73.150;2023-09-19T09:14:45;21.25;51.13
72762;SHT30;60886;55.034;73.150;2023-09-19T09:17:54;21.17;52.87
72762;SHT30;60886;55.034;73.150;2023-09-19T09:20:59;21.04;51.43
72762;SHT30;60886;55.034;73.150;2023-09-19T09:24:29;20.92;51.62
72762;SHT30;60886;55.034;73.150;2023-09-19T09:27:35;20.94;51.28
72762;SHT30;60886;55.034;73.150;2023-09-19T09:30:39;21.02;50.95
72762;SHT30;60886;55.034;73.150;2023-09-19T09:33:55;21.09;50.53
72762;SHT30;60886;55.034;73.150;2023-09-19T09:36:58;21.09;51.01
72762;SHT30;60886;55.034;73.150;2023-09-19T09:40:02;21.08;51.86
72762;SHT30;60886;55.034;73.150;2023-09-19T09:43:27;20.94;52.74
72762;SHT30;60886;55.034;73.150;2023-09-19T09:46:30;20.75;52.96
72762;SHT30;60886;55.034;73.150;2023-09-19T09:49:55;20.65;53.36
72762;SHT30;60886;55.034;73.150;2023-09-19T09:53:21;20.57;53.93
72762;SHT30;60886;55.034;73.150;2023-09-19T09:56:31;20.64;53.66
72762;SHT30;60886;55.034;73.150;2023-09-19T09:59:51;20.74;52.36
72762;SHT30;60886;55.034;73.150;2023-09-19T10:03:00;20.85;52.80
72762;SHT30;60886;55.034;73.150;2023-09-19T10:06:02;20.91;50.95
72762;SHT30;60886;55.034;73.150;2023-09-19T10:09:24;20.98;51.44
72762;SHT30;60886;55.034;73.150;2023-09-19T10:12:40;21.11;51.08
72762;SHT30;60886;55.034;73.150;2023-09-19T10:15:46;21.21;49.92
72762;SHT30;60886;55.034;73.150;2023-09-19T10:19:01;21.25;49.88
72762;SHT30;60886;55.034;73.150;2023-09-19T10:22:05;21.32;51.93
72762;SHT30;60886;55.034;73.150;2023-09-19T10:25:16;21.39;50.99
72762;SHT30;60886;55.034;73.150;2023-09-19T10:28:22;21.46;50.78
72762;SHT30;60886;55.034;73.150;2023-09-19T10:31:28;21.53;50.92
72762;SHT30;60886;55.034;73.150;2023-09-19T10:34:30;21.56;50.42
72762;SHT30;60886;55.034;73.150;2023-09-19T10:38:03;21.65;50.02
72762;SHT30;60886;55.034;73.150;2023-09-19T10:41:07;21.66;50.37
72762;SHT30;60886;55.034;73.150;2023-09-19T10:44:10;21.63;50.17
72762;SHT30;60886;55.034;73.150;2023-09-19T10:47:13;21.69;49.47
72762;SHT30;60886;55.034;73.150;2023-09-19T10:50:22;21.78;48.91
72762;SHT30;60886;55.034;73.150;2023-09-19T10:54:08;21.89;49.73
72762;SHT30;60886;55.034;73.150;2023-09-19T10:57:24;21.97;49.70
72762;SHT30;60886;55.034;73.150;2023-09-19T11:00:51;22.00;49.20
72762;SHT30;60886;55.034;73.150;2023-09-19T11:04:26;22.06;48.17
72762;SHT30;60886;55.034;73.150;2023-09-19T11:07:28;22.04;46.94
72762;SHT30;60886;55.034;73.150;2023-09-19T11:10:48;22.03;48.41
72762;SHT30;60886;55.034;73.150;2023-09-19T11:14:29;21.94;48.41
72762;SHT30;60886;55.034;73.150;2023-09-19T11:17:35;21.86;48.45
72762;SHT30;60886;55.034;73.150;2023-09-19T11:20:48;21.79;48.75
72762;SHT30;60886;55.034;73.150;2023-09-19T11:24:28;21.73;48.83
72762;SHT30;60886;55.034;73.150;2023-09-19T11:27:33;21.70;49.60
72762;SHT30;60886;55.034;73.150;2023-09-19T11:30:37;21.67;51.24
72762;SHT30;60886;55.034;73.150;2023-09-19T11:33:39;21.67;50.20
72762;SHT30;60886;55.034;73.150;2023-09-19T11:36:47;21.60;50.00
72762;SHT30;60886;55.034;73.150;2023-09-19T11:40:06;21.53;49.09
72762;SHT30;60886;55.034;73.150;2023-09-19T11:43:28;21.25;49.80
72762;SHT30;60886;55.034;73.150;2023-09-19T11:49:57;20.94;52.56
72762;SHT30;60886;55.034;73.150;2023-09-19T11:53:01;20.80;52.21
72762;SHT30;60886;55.034;73.150;2023-09-19T11:56:06;20.68;52.60
72762;SHT30;60886;55.034;73.150;2023-09-19T11:59:11;20.63;54.20
72762;SHT30;60886;55.034;73.150;2023-09-19T12:02:39;20.45;58.19
72762;SHT30;60886;55.034;73.150;2023-09-19T12:05:43;20.26;59.87
72762;SHT30;60886;55.034;73.150;2023-09-19T12:08:49;20.09;60.50
72762;SHT30;60886;55.034;73.150;2023-09-19T12:11:52;19.85;61.09
72762;SHT30;60886;55.034;73.150;2023-09-19T12:14:54;19.63;62.20
72762;SHT30;60886;55.034;73.150;2023-09-19T12:17:58;19.52;62.30
72762;SHT30;60886;55.034;73.150;2023-09-19T12:21:00;19.47;62.28
72762;SHT30;60886;55.034;73.150;2023-09-19T12:24:12;19.49;62.85
72762;SHT30;60886;55.034;73.150;2023-09-19T12:27:20;19.47;61.84
72762;SHT30;60886;55.034;73.150;2023-09-19T12:30:28;19.38;64.47
72762;SHT30;60886;55.034;73.150;2023-09-19T12:33:34;19.21;63.54
72762;SHT30;60886;55.034;73.150;2023-09-19T12:36:40;19.15;62.64
72762;SHT30;60886;55.034;73.150;2023-09-19T12:39:44;19.06;62.56
72762;SHT30;60886;55.034;73.150;2023-09-19T12:42:50;18.94;62.37
72762;SHT30;60886;55.034;73.150;2023-09-19T12:45:54;18.83;61.76
72762;SHT30;60886;55.034;73.150;2023-09-19T12:49:15;18.74;61.07
72762;SHT30;60886;55.034;73.150;2023-09-19T12:52:18;18.70;59.82
72762;SHT30;60886;55.034;73.150;2023-09-19T12:55:30;18.61;60.06
72762;SHT30;60886;55.034;73.150;2023-09-19T12:58:57;18.52;62.01
72762;SHT30;60886;55.034;73.150;2023-09-19T13:02:04;18.46;60.00
72762;SHT30;60886;55.034;73.150;2023-09-19T13:05:15;18.36;61.03
72762;SHT30;60886;55.034;73.150;2023-09-19T13:08:19;18.25;62.00
72762;SHT30;60886;55.034;73.150;2023-09-19T13:11:22;18.09;63.21
72762;SHT30;60886;55.034;73.150;2023-09-19T13:14:25;17.91;63.00
72762;SHT30;60886;55.034;73.150;2023-09-19T13:17:48;17.81;65.56
72762;SHT30;60886;55.034;73.150;2023-09-19T13:21:09;17.72;62.91
72762;SHT30;60886;55.034;73.150;2023-09-19T13:24:24;17.72;62.96
72762;SHT30;60886;55.034;73.150;2023-09-19T13:27:32;17.68;63.58
72762;SHT30;60886;55.034;73.150;2023-09-19T13:30:44;17.62;64.93
72762;SHT30;60886;55.034;73.150;2023-09-19T13:33:49;17.52;65.53
72762;SHT30;60886;55.034;73.150;2023-09-19T13:36:51;17.42;65.14
72762;SHT30;60886;55.034;73.150;2023-09-19T13:39:53;17.28;66.77
72762;SHT30;60886;55.034;73.150;2023-09-19T13:42:57;17.20;67.00
72762;SHT30;60886;55.034;73.150;2023-09-19T13:45:58;17.06;66.96
72762;SHT30;60886;55.034;73.150;2023-09-19T13:49:01;17.02;65.76
72762;SHT30;60886;55.034;73.150;2023-09-19T13:52:09;16.99;66.37
72762;SHT30;60886;55.034;73.150;2023-09-19T13:55:20;17.02;65.40
72762;SHT30;60886;55.034;73.150;2023-09-19T13:58:21;17.04;64.90
72762;SHT30;60886;55.034;73.150;2023-09-19T14:01:43;17.06;65.13
72762;SHT30;60886;55.034;73.150;2023-09-19T14:05:23;16.94;67.07
72762;SHT30;60886;55.034;73.150;2023-09-19T14:09:00;16.77;68.48
72762;SHT30;60886;55.034;73.150;2023-09-19T14:12:02;16.55;70.03
72762;SHT30;60886;55.034;73.150;2023-09-19T14:15:12;16.39;71.23
72762;SHT30;60886;55.034;73.150;2023-09-19T14:18:20;16.21;72.08
72762;SHT30;60886;55.034;73.150;2023-09-19T14:21:23;16.13;73.10
72762;SHT30;60886;55.034;73.150;2023-09-19T14:24:25;16.04;73.67
72762;SHT30;60886;55.034;73.150;2023-09-19T14:27:27;15.94;73.65
72762;SHT30;60886;55.034;73.150;2023-09-19T14:30:32;15.88;73.25
72762;SHT30;60886;55.034;73.150;2023-09-19T14:33:33;15.81;73.22
72762;SHT30;60886;55.034;73.150;2023-09-19T14:36:37;15.81;73.05
72762;SHT30;60886;55.034;73.150;2023-09-19T14:39:41;15.81;72.56
72762;SHT30;60886;55.034;73.150;2023-09-19T14:47:05;15.78;71.51
72762;SHT30;60886;55.034;73.150;2023-09-19T14:50:16;15.78;72.30
72762;SHT30;60886;55.034;73.150;2023-09-19T14:53:47;15.74;72.38
72762;SHT30;60886;55.034;73.150;2023-09-19T14:57:12;15.77;72.39
72762;SHT30;60886;55.034;73.150;2023-09-19T15:00:25;15.80;72.48
72762;SHT30;60886;55.034;73.150;2023-09-19T15:03:28;15.80;72.14
72762;SHT30;60886;55.034;73.150;2023-09-19T15:06:32;15.87;72.06
72762;SHT30;60886;55.034;73.150;2023-09-19T15:09:38;15.85;71.74
72762;SHT30;60886;55.034;73.150;2023-09-19T15:12:44;15.81;72.41
72762;SHT30;60886;55.034;73.150;2023-09-19T15:15:52;15.75;72.85
72762;SHT30;60886;55.034;73.150;2023-09-19T15:18:54;15.68;72.84
72762;SHT30;60886;55.034;73.150;2023-09-19T15:22:05;15.58;72.94
72762;SHT30;60886;55.034;73.150;2023-09-19T15:25:09;15.54;73.10
72762;SHT30;60886;55.034;73.150;2023-09-19T15:28:15;15.54;73.00
72762;SHT30;60886;55.034;73.150;2023-09-19T15:31:19;15.49;73.24
72762;SHT30;60886;55.034;73.150;2023-09-19T15:34:21;15.46;73.48
72762;SHT30;60886;55.034;73.150;2023-09-19T15:37:28;15.41;74.17
72762;SHT30;60886;55.034;73.150;2023-09-19T15:41:12;15.31;74.35
72762;SHT30;60886;55.034;73.150;2023-09-19T15:44:30;15.22;74.64
72762;SHT30;60886;55.034;73.150;2023-09-19T15:47:38;15.17;74.78
72762;SHT30;60886;55.034;73.150;2023-09-19T15:50:44;15.09;74.85
72762;SHT30;60886;55.034;73.150;2023-09-19T15:53:52;15.10;74.41
72762;SHT30;60886;55.034;73.150;2023-09-19T15:56:59;15.06;74.63
72762;SHT30;60886;55.034;73.150;2023-09-19T16:00:01;14.97;74.50
72762;SHT30;60886;55.034;73.150;2023-09-19T16:03:18;14.97;73.69
72762;SHT30;60886;55.034;73.150;2023-09-19T16:06:36;14.95;73.81
72762;SHT30;60886;55.034;73.150;2023-09-19T16:09:49;14.95;74.27
72762;SHT30;60886;55.034;73.150;2023-09-19T16:12:53;14.92;74.52
72762;SHT30;60886;55.034;73.150;2023-09-19T16:16:04;14.87;74.49
72762;SHT30;60886;55.034;73.150;2023-09-19T16:19:25;14.87;75.11
72762;SHT30;60886;55.034;73.150;2023-09-19T16:23:11;14.79;74.75
72762;SHT30;60886;55.034;73.150;2023-09-19T16:26:20;14.86;74.68
72762;SHT30;60886;55.034;73.150;2023-09-19T16:29:32;14.86;74.69
72762;SHT30;60886;55.034;73.150;2023-09-19T16:32:38;14.87;74.84
72762;SHT30;60886;55.034;73.150;2023-09-19T16:35:43;14.85;75.30
72762;SHT30;60886;55.034;73.150;2023-09-19T16:38:49;14.82;75.51
72762;SHT30;60886;55.034;73.150;2023-09-19T16:42:00;14.77;76.19
72762;SHT30;60886;55.034;73.150;2023-09-19T16:45:08;14.71;74.60
72762;SHT30;60886;55.034;73.150;2023-09-19T16:48:13;14.76;74.36
72762;SHT30;60886;55.034;73.150;2023-09-19T16:51:17;14.77;74.11
72762;SHT30;60886;55.034;73.150;2023-09-19T16:54:23;14.75;74.30
72762;SHT30;60886;55.034;73.150;2023-09-19T16:57:35;14.73;74.54
72762;SHT30;60886;55.034;73.150;2023-09-19T17:00:47;14.73;74.45
72762;SHT30;60886;55.034;73.150;2023-09-19T17:04:01;14.75;75.45
72762;SHT30;60886;55.034;73.150;2023-09-19T17:07:14;14.69;75.62
72762;SHT30;60886;55.034;73.150;2023-09-19T17:10:23;14.64;75.16
72762;SHT30;60886;55.034;73.150;2023-09-19T17:13:36;14.61;74.26
72762;SHT30;60886;55.034;73.150;2023-09-19T17:16:38;14.41;74.45
72762;SHT30;60886;55.034;73.150;2023-09-19T17:19:39;14.14;74.59
72762;SHT30;60886;55.034;73.150;2023-09-19T17:22:41;13.90;75.55
72762;SHT30;60886;55.034;73.150;2023-09-19T17:25:42;13.73;76.53
72762;SHT30;60886;55.034;73.150;2023-09-19T17:28:49;13.60;76.73
72762;SHT30;60886;55.034;73.150;2023-09-19T17:31:51;13.54;76.77
72762;SHT30;60886;55.034;73.150;2023-09-19T17:34:52;13.54;76.77
72762;SHT30;60886;55.034;73.150;2023-09-19T17:37:53;13.54;76.52
72762;SHT30;60886;55.034;73.150;2023-09-19T17:40:55;13.56;76.40
72762;SHT30;60886;55.034;73.150;2023-09-19T17:43:58;13.51;76.42
72762;SHT30;60886;55.034;73.150;2023-09-19T17:47:00;13.49;76.29
72762;SHT30;60886;55.034;73.150;2023-09-19T17:50:02;13.38;76.46
72762;SHT30;60886;55.034;73.150;2023-09-19T17:53:05;13.15;76.92
72762;SHT30;60886;55.034;73.150;2023-09-19T17:56:08;13.09;77.29
72762;SHT30;60886;55.034;73.150;2023-09-19T17:59:11;12.93;77.55
72762;SHT30;60886;55.034;73.150;2023-09-19T18:02:14;12.84;77.99
72762;SHT30;60886;55.034;73.150;2023-09-19T18:05:16;12.81;78.03
72762;SHT30;60886;55.034;73.150;2023-09-19T18:08:17;12.79;78.77
72762;SHT30;60886;55.034;73.150;2023-09-19T18:11:21;12.71;78.58
72762;SHT30;60886;55.034;73.150;2023-09-19T18:14:26;12.72;78.75
72762;SHT30;60886;55.034;73.150;2023-09-19T18:17:33;12.75;78.80
72762;SHT30;60886;55.034;73.150;2023-09-19T18:20:37;12.85;78.44
72762;SHT30;60886;55.034;73.150;2023-09-19T18:23:58;12.93;79.62
72762;SHT30;60886;55.034;73.150;2023-09-19T18:27:16;13.02;80.09
72762;SHT30;60886;55.034;73.150;2023-09-19T18:30:18;13.08;81.05
72762;SHT30;60886;55.034;73.150;2023-09-19T18:33:19;13.06;80.97
72762;SHT30;60886;55.034;73.150;2023-09-19T18:36:31;13.08;80.70
72762;SHT30;60886;55.034;73.150;2023-09-19T18:39:36;13.12;81.10
72762;SHT30;60886;55.034;73.150;2023-09-19T18:42:52;13.09;80.20
72762;SHT30;60886;55.034;73.150;2023-09-19T18:45:58;13.08;79.79
72762;SHT30;60886;55.034;73.150;2023-09-19T18:49:03;13.10;79.22
72762;SHT30;60886;55.034;73.150;2023-09-19T18:52:12;13.08;78.96
72762;SHT30;60886;55.034;73.150;2023-09-19T18:55:16;13.10;78.85
72762;SHT30;60886;55.034;73.150;2023-09-19T18:58:22;13.10;78.59
72762;SHT30;60886;55.034;73.150;2023-09-19T19:01:30;13.13;78.20
72762;SHT30;60886;55.034;73.150;2023-09-19T19:04:38;13.15;77.73
72762;SHT30;60886;55.034;73.150;2023-09-19T19:07:49;13.12;77.45
72762;SHT30;60886;55.034;73.150;2023-09-19T19:10:58;13.12;77.19
72762;SHT30;60886;55.034;73.150;2023-09-19T19:14:00;13.10;77.00
72762;SHT30;60886;55.034;73.150;2023-09-19T19:17:03;13.10;77.23
72762;SHT30;60886;55.034;73.150;2023-09-19T19:20:07;13.08;77.57
72762;SHT30;60886;55.034;73.150;2023-09-19T19:23:10;13.06;78.05
72762;SHT30;60886;55.034;73.150;2023-09-19T19:26:13;13.02;78.28
72762;SHT30;60886;55.034;73.150;2023-09-19T19:29:16;12.99;78.44
72762;SHT30;60886;55.034;73.150;2023-09-19T19:32:19;12.95;78.37
72762;SHT30;60886;55.034;73.150;2023-09-19T19:35:34;12.89;78.14
72762;SHT30;60886;55.034;73.150;2023-09-19T19:38:38;12.88;77.95
72762;SHT30;60886;55.034;73.150;2023-09-19T19:41:43;12.86;77.81
72762;SHT30;60886;55.034;73.150;2023-09-19T19:44:52;12.84;77.87
72762;SHT30;60886;55.034;73.150;2023-09-19T19:48:02;12.82;78.02
72762;SHT30;60886;55.034;73.150;2023-09-19T19:51:06;12.72;78.43
72762;SHT30;60886;55.034;73.150;2023-09-19T19:54:11;12.69;78.38